Time;durP1;ratioP1;P1;durP2;ratioP2;P2;SDS_P1;SDS_P2;PMS_P1;PMS_P2;Temp;Humidity;BMP_temperature;BMP_pressure;BME280_temperature;BME280_humidity;BME280_pressure;Samples;Min_cycle;Max_cycle;Signal;HPM_P1;HPM_P2
2023/04/27 00:01:12;;;;;;;1.87;1.77;;;;;;;;;;5072554;28;20226;-85
2023/04/27 00:03:41;;;;;;;0.80;0.80;;;;;;;;;;5073080;28;20215;-85
2023/04/27 00:06:10;;;;;;;2.00;1.60;;;;;;;;;;5073306;28;20198;-85
2023/04/27 00:08:39;;;;;;;2.57;2.47;;;;;;;;;;5072981;28;20201;-85
2023/04/27 00:11:08;;;;;;;1.47;1.47;;;;;;;;;;5073009;28;20286;-85
2023/04/27 00:13:36;;;;;;;1.93;1.83;;;;;;;;;;5072628;28;20201;-85
2023/04/27 00:16:05;;;;;;;1.57;1.57;;;;;;;;;;5072554;28;20202;-85
2023/04/27 00:18:33;;;;;;;1.33;1.33;;;;;;;;;;5072943;28;20213;-86
2023/04/27 00:21:02;;;;;;;0.80;0.80;;;;;;;;;;5072843;28;20221;-85
2023/04/27 00:23:30;;;;;;;0.83;0.83;;;;;;;;;;5071931;28;20216;-86
2023/04/27 00:26:00;;;;;;;1.23;1.23;;;;;;;;;;5072512;28;20244;-85
2023/04/27 00:28:28;;;;;;;1.10;1.10;;;;;;;;;;5072302;28;20251;-85
2023/04/27 00:30:57;;;;;;;1.93;1.83;;;;;;;;;;5072119;28;20312;-85
2023/04/27 00:33:25;;;;;;;0.80;0.80;;;;;;;;;;5072410;28;20202;-86
2023/04/27 00:35:54;;;;;;;0.93;0.93;;;;;;;;;;5072986;28;20259;-86
2023/04/27 00:38:22;;;;;;;1.03;1.03;;;;;;;;;;5072026;28;20267;-85
2023/04/27 00:40:51;;;;;;;0.80;0.80;;;;;;;;;;5071900;28;20228;-85
2023/04/27 00:43:20;;;;;;;2.40;2.30;;;;;;;;;;5072121;28;20208;-85
2023/04/27 00:45:49;;;;;;;0.80;0.80;;;;;;;;;;5072222;28;20194;-85
2023/04/27 00:48:18;;;;;;;0.90;0.90;;;;;;;;;;5072933;28;20197;-90
2023/04/27 00:50:46;;;;;;;1.10;1.10;;;;;;;;;;5072925;28;20263;-91
2023/04/27 00:53:15;;;;;;;1.00;1.00;;;;;;;;;;5073307;28;20291;-91
2023/04/27 00:55:43;;;;;;;0.93;0.93;;;;;;;;;;5073100;28;20205;-91
2023/04/27 00:58:11;;;;;;;0.90;0.90;;;;;;;;;;5072632;28;20221;-91
2023/04/27 01:00:42;;;;;;;1.23;1.23;;;;;;;;;;5072799;28;20237;-91
2023/04/27 01:03:10;;;;;;;0.90;0.90;;;;;;;;;;5072860;28;20193;-90
2023/04/27 01:05:39;;;;;;;1.10;1.10;;;;;;;;;;5072962;28;20198;-90
2023/04/27 01:08:08;;;;;;;0.90;0.90;;;;;;;;;;5072899;28;20220;-90
2023/04/27 01:10:37;;;;;;;2.13;2.03;;;;;;;;;;5072578;28;20244;-90
2023/04/27 01:13:06;;;;;;;1.00;1.00;;;;;;;;;;5072853;28;20201;-91
2023/04/27 01:15:34;;;;;;;0.87;0.87;;;;;;;;;;5073365;28;20205;-91
2023/04/27 01:18:04;;;;;;;0.90;0.90;;;;;;;;;;5072795;28;20225;-90
2023/04/27 01:20:33;;;;;;;2.07;2.00;;;;;;;;;;5072720;28;20190;-91
2023/04/27 01:23:01;;;;;;;0.93;0.93;;;;;;;;;;5072718;28;20208;-90
2023/04/27 01:25:32;;;;;;;1.00;1.00;;;;;;;;;;5072567;28;20205;-91
2023/04/27 01:28:00;;;;;;;2.97;2.70;;;;;;;;;;5073242;28;20229;-91
2023/04/27 01:30:29;;;;;;;1.20;1.20;;;;;;;;;;5072465;28;20281;-90
2023/04/27 01:32:57;;;;;;;1.03;1.03;;;;;;;;;;5072609;28;20208;-91
2023/04/27 01:35:25;;;;;;;1.63;1.37;;;;;;;;;;5072369;28;20194;-91
2023/04/27 01:37:56;;;;;;;1.17;1.17;;;;;;;;;;5072241;28;20198;-91
2023/04/27 01:40:24;;;;;;;1.10;1.10;;;;;;;;;;5072503;28;20278;-91
2023/04/27 01:42:54;;;;;;;1.10;1.10;;;;;;;;;;5072889;28;20282;-91
2023/04/27 01:45:23;;;;;;;1.43;1.43;;;;;;;;;;5072859;28;20198;-91
2023/04/27 01:47:51;;;;;;;0.80;0.80;;;;;;;;;;5072779;28;20198;-91
2023/04/27 01:50:20;;;;;;;1.00;1.00;;;;;;;;;;5072345;28;20194;-91
2023/04/27 01:52:49;;;;;;;2.60;2.50;;;;;;;;;;5072384;28;20222;-91
2023/04/27 01:55:17;;;;;;;2.13;2.03;;;;;;;;;;5072576;28;20204;-91
2023/04/27 01:57:45;;;;;;;1.00;1.00;;;;;;;;;;5072206;28;20232;-91
2023/04/27 02:00:16;;;;;;;1.20;1.20;;;;;;;;;;5071785;28;20230;-91
2023/04/27 02:02:45;;;;;;;0.90;0.90;;;;;;;;;;5072267;28;20197;-91
2023/04/27 02:05:13;;;;;;;1.00;1.00;;;;;;;;;;5071684;28;20198;-91
2023/04/27 02:07:42;;;;;;;1.00;1.00;;;;;;;;;;5072717;28;20292;-91
2023/04/27 02:10:11;;;;;;;1.00;1.00;;;;;;;;;;5074626;28;20205;-91
2023/04/27 02:12:39;;;;;;;1.10;1.10;;;;;;;;;;5075928;28;20319;-91
2023/04/27 02:15:09;;;;;;;0.90;0.90;;;;;;;;;;5076749;28;20198;-91
2023/04/27 02:17:39;;;;;;;2.03;1.97;;;;;;;;;;5076899;28;20202;-90
2023/04/27 02:20:08;;;;;;;2.50;2.30;;;;;;;;;;5077103;28;20288;-89
2023/04/27 02:22:37;;;;;;;1.50;1.40;;;;;;;;;;5076827;28;20185;-91
2023/04/27 02:25:06;;;;;;;0.90;0.90;;;;;;;;;;5076376;28;20312;-90
2023/04/27 02:27:34;;;;;;;0.90;0.90;;;;;;;;;;5076180;28;20206;-91
2023/04/27 02:30:05;;;;;;;1.00;1.00;;;;;;;;;;5075889;28;20253;-91
2023/04/27 02:32:36;;;;;;;0.90;0.90;;;;;;;;;;5075974;28;20217;-90
2023/04/27 02:35:06;;;;;;;2.23;2.07;;;;;;;;;;5076257;28;20244;-91
2023/04/27 02:37:35;;;;;;;1.30;1.30;;;;;;;;;;5076159;28;20221;-91
2023/04/27 02:40:05;;;;;;;1.83;1.73;;;;;;;;;;5075955;28;20213;-90
2023/04/27 02:42:34;;;;;;;1.40;1.40;;;;;;;;;;5075682;28;20201;-90
2023/04/27 02:45:02;;;;;;;2.73;1.53;;;;;;;;;;5075222;28;20201;-91
2023/04/27 02:47:31;;;;;;;1.57;1.50;;;;;;;;;;5075649;28;20185;-91
2023/04/27 02:50:00;;;;;;;1.00;1.00;;;;;;;;;;5075034;28;20193;-91
2023/04/27 02:52:29;;;;;;;0.90;0.90;;;;;;;;;;5075431;28;20264;-91
2023/04/27 02:54:58;;;;;;;1.77;1.73;;;;;;;;;;5074975;28;20194;-91
2023/04/27 02:57:26;;;;;;;2.30;2.23;;;;;;;;;;5076135;28;20205;-90
2023/04/27 02:59:55;;;;;;;1.10;1.10;;;;;;;;;;5074886;28;20204;-91
2023/04/27 03:02:23;;;;;;;1.20;1.20;;;;;;;;;;5074653;28;20282;-91
2023/04/27 03:04:54;;;;;;;1.67;1.67;;;;;;;;;;5074565;28;20201;-91
2023/04/27 03:07:23;;;;;;;0.80;0.80;;;;;;;;;;5075235;28;20224;-90
2023/04/27 03:09:53;;;;;;;1.33;1.33;;;;;;;;;;5075196;28;20237;-91
2023/04/27 03:12:21;;;;;;;1.00;1.00;;;;;;;;;;5075465;28;20293;-91
2023/04/27 03:14:49;;;;;;;0.90;0.90;;;;;;;;;;5075042;28;20202;-91
2023/04/27 03:17:18;;;;;;;1.27;1.27;;;;;;;;;;5075520;28;20207;-91
2023/04/27 03:19:48;;;;;;;0.83;0.83;;;;;;;;;;5075567;28;20288;-91
2023/04/27 03:22:16;;;;;;;0.90;0.90;;;;;;;;;;5075015;28;20220;-91
2023/04/27 03:24:45;;;;;;;2.03;1.93;;;;;;;;;;5075334;28;20227;-91
2023/04/27 03:27:15;;;;;;;0.90;0.90;;;;;;;;;;5075283;28;20270;-91
2023/04/27 03:29:43;;;;;;;0.90;0.90;;;;;;;;;;5075043;28;20205;-91
2023/04/27 03:32:12;;;;;;;0.90;0.90;;;;;;;;;;5074532;28;20222;-91
2023/04/27 03:34:40;;;;;;;1.63;1.40;;;;;;;;;;5075356;28;20247;-91
2023/04/27 03:37:09;;;;;;;1.33;1.33;;;;;;;;;;5074983;28;20220;-91
2023/04/27 03:39:37;;;;;;;1.23;1.23;;;;;;;;;;5074692;28;20217;-91
2023/04/27 03:42:06;;;;;;;0.90;0.90;;;;;;;;;;5074493;28;20236;-91
2023/04/27 03:44:36;;;;;;;1.00;1.00;;;;;;;;;;5074841;28;20255;-91
2023/04/27 03:47:07;;;;;;;4.10;3.90;;;;;;;;;;5074389;28;20204;-90
2023/04/27 03:49:36;;;;;;;0.90;0.90;;;;;;;;;;5075426;28;20240;-91
2023/04/27 03:52:05;;;;;;;1.40;1.40;;;;;;;;;;5074557;28;20249;-91
2023/04/27 03:54:33;;;;;;;2.23;2.17;;;;;;;;;;5074400;28;20261;-90
2023/04/27 03:57:03;;;;;;;0.90;0.90;;;;;;;;;;5074522;28;20225;-91
2023/04/27 03:59:31;;;;;;;0.90;0.90;;;;;;;;;;5074630;28;20216;-91
2023/04/27 04:02:02;;;;;;;0.90;0.90;;;;;;;;;;5074326;28;20328;-91
2023/04/27 04:04:31;;;;;;;0.80;0.80;;;;;;;;;;5074619;28;20197;-86
2023/04/27 04:07:00;;;;;;;1.43;1.40;;;;;;;;;;5072800;28;20197;-86
2023/04/27 04:09:28;;;;;;;1.00;1.00;;;;;;;;;;5072436;28;20293;-85
2023/04/27 04:11:56;;;;;;;0.90;0.90;;;;;;;;;;5072730;28;20210;-85
2023/04/27 04:14:25;;;;;;;0.90;0.90;;;;;;;;;;5072576;28;20218;-86
2023/04/27 04:16:53;;;;;;;1.00;1.00;;;;;;;;;;5072336;28;20193;-86
2023/04/27 04:19:23;;;;;;;0.90;0.90;;;;;;;;;;5072606;28;20190;-85
2023/04/27 04:21:53;;;;;;;6.70;4.10;;;;;;;;;;5072171;28;20209;-86
2023/04/27 04:24:21;;;;;;;3.83;3.23;;;;;;;;;;5072197;28;20206;-86
2023/04/27 04:26:50;;;;;;;2.10;2.07;;;;;;;;;;5071926;28;20260;-86
2023/04/27 04:29:18;;;;;;;6.03;5.70;;;;;;;;;;5072460;28;20238;-86
2023/04/27 04:31:47;;;;;;;1.37;1.37;;;;;;;;;;5071728;28;20190;-85
2023/04/27 04:34:15;;;;;;;6.40;3.97;;;;;;;;;;5071687;28;20205;-86
2023/04/27 04:36:45;;;;;;;3.53;3.23;;;;;;;;;;5072247;28;20240;-86
2023/04/27 04:39:14;;;;;;;16.17;7.20;;;;;;;;;;5072145;28;20197;-86
2023/04/27 04:41:43;;;;;;;12.73;6.87;;;;;;;;;;5071843;28;20205;-85
2023/04/27 04:44:11;;;;;;;12.73;5.87;;;;;;;;;;5072180;28;20284;-85
2023/04/27 04:46:39;;;;;;;9.60;5.03;;;;;;;;;;5072399;28;20251;-86
2023/04/27 04:49:08;;;;;;;10.70;5.63;;;;;;;;;;5071994;28;20194;-85
2023/04/27 04:51:36;;;;;;;11.23;6.00;;;;;;;;;;5072020;28;20233;-85
2023/04/27 04:54:06;;;;;;;8.20;4.73;;;;;;;;;;5071900;28;20324;-86
2023/04/27 04:56:35;;;;;;;1.80;1.73;;;;;;;;;;5071534;28;20216;-85
2023/04/27 04:59:03;;;;;;;10.40;6.50;;;;;;;;;;5072172;28;20206;-85
2023/04/27 05:01:32;;;;;;;5.73;5.17;;;;;;;;;;5071834;28;20325;-86
2023/04/27 05:04:01;;;;;;;8.00;4.50;;;;;;;;;;5071607;28;20205;-85
2023/04/27 05:06:30;;;;;;;5.73;5.23;;;;;;;;;;5071753;28;20271;-86
2023/04/27 05:08:59;;;;;;;8.40;5.90;;;;;;;;;;5071397;28;20193;-86
2023/04/27 05:11:28;;;;;;;12.30;8.37;;;;;;;;;;5071646;28;20220;-86
2023/04/27 05:13:57;;;;;;;10.33;8.07;;;;;;;;;;5070913;28;20225;-86
2023/04/27 05:16:25;;;;;;;13.63;9.80;;;;;;;;;;5071789;28;20302;-86
2023/04/27 05:18:54;;;;;;;10.70;7.83;;;;;;;;;;5071458;28;20198;-86
2023/04/27 05:21:22;;;;;;;10.13;7.37;;;;;;;;;;5072073;28;20204;-86
2023/04/27 05:23:51;;;;;;;9.40;7.83;;;;;;;;;;5071675;28;20208;-86
2023/04/27 05:26:20;;;;;;;9.47;6.70;;;;;;;;;;5071075;28;20202;-85
2023/04/27 05:28:49;;;;;;;10.70;8.30;;;;;;;;;;5070944;28;20201;-86
2023/04/27 05:31:18;;;;;;;8.37;6.93;;;;;;;;;;5071480;28;20233;-86
2023/04/27 05:33:46;;;;;;;7.80;6.50;;;;;;;;;;5071146;28;20228;-85
2023/04/27 05:36:14;;;;;;;8.37;7.03;;;;;;;;;;5070988;28;20194;-86
2023/04/27 05:38:43;;;;;;;10.33;7.93;;;;;;;;;;5071373;28;20197;-85
2023/04/27 05:41:11;;;;;;;8.83;6.53;;;;;;;;;;5071484;28;20198;-85
2023/04/27 05:43:39;;;;;;;7.70;6.40;;;;;;;;;;5070974;28;20240;-86
2023/04/27 05:46:10;;;;;;;7.63;6.57;;;;;;;;;;5071334;28;20324;-85
2023/04/27 05:48:38;;;;;;;11.93;6.93;;;;;;;;;;5071195;28;20198;-85
2023/04/27 05:51:06;;;;;;;2.73;2.47;;;;;;;;;;5071007;28;20201;-85
2023/04/27 05:53:35;;;;;;;9.40;5.43;;;;;;;;;;5070874;28;20209;-85
2023/04/27 05:56:05;;;;;;;6.23;5.10;;;;;;;;;;5071436;28;20292;-86
2023/04/27 05:58:34;;;;;;;9.67;6.40;;;;;;;;;;5071023;28;20225;-85
2023/04/27 06:01:03;;;;;;;5.97;4.00;;;;;;;;;;5070606;28;20295;-86
2023/04/27 06:03:32;;;;;;;5.30;4.80;;;;;;;;;;5071238;28;20219;-85
2023/04/27 06:06:02;;;;;;;8.37;5.07;;;;;;;;;;5070293;28;20233;-85
2023/04/27 06:08:30;;;;;;;8.80;5.73;;;;;;;;;;5070895;28;20201;-85
2023/04/27 06:10:59;;;;;;;8.60;6.97;;;;;;;;;;5070637;28;20234;-85
2023/04/27 06:13:27;;;;;;;8.30;5.50;;;;;;;;;;5071353;28;20260;-85
2023/04/27 06:15:55;;;;;;;6.40;4.47;;;;;;;;;;5071262;28;20201;-86
2023/04/27 06:18:24;;;;;;;9.60;6.23;;;;;;;;;;5071130;28;20209;-85
2023/04/27 06:20:53;;;;;;;7.90;5.97;;;;;;;;;;5071384;28;20316;-85
2023/04/27 06:23:22;;;;;;;5.03;4.53;;;;;;;;;;5070636;28;20229;-85
2023/04/27 06:25:51;;;;;;;6.13;4.70;;;;;;;;;;5070995;28;20194;-85
2023/04/27 06:28:19;;;;;;;7.00;5.70;;;;;;;;;;5070504;28;20226;-85
2023/04/27 06:30:47;;;;;;;8.60;6.67;;;;;;;;;;5070515;28;20210;-85
2023/04/27 06:33:16;;;;;;;9.43;5.67;;;;;;;;;;5070656;28;20491;-85
2023/04/27 06:35:45;;;;;;;9.03;5.83;;;;;;;;;;5070857;28;20275;-85
2023/04/27 06:38:16;;;;;;;8.67;5.93;;;;;;;;;;5070530;28;20202;-85
2023/04/27 06:40:44;;;;;;;7.67;5.50;;;;;;;;;;5070313;28;20194;-85
2023/04/27 06:43:13;;;;;;;7.50;6.50;;;;;;;;;;5070932;28;20193;-85
2023/04/27 06:45:41;;;;;;;6.53;4.83;;;;;;;;;;5070933;28;20229;-85
2023/04/27 06:48:10;;;;;;;9.03;5.50;;;;;;;;;;5070780;28;20202;-86
2023/04/27 06:50:38;;;;;;;5.97;5.33;;;;;;;;;;5070737;28;20202;-85
2023/04/27 06:53:07;;;;;;;7.20;4.60;;;;;;;;;;5070558;28;20224;-85
2023/04/27 06:55:37;;;;;;;6.40;4.93;;;;;;;;;;5071251;28;20202;-86
2023/04/27 06:58:05;;;;;;;8.80;5.67;;;;;;;;;;5074461;28;20283;-85
2023/04/27 07:00:34;;;;;;;5.50;5.00;;;;;;;;;;5074567;28;20233;-91
2023/04/27 07:03:02;;;;;;;7.80;5.50;;;;;;;;;;5074434;28;20194;-91
2023/04/27 07:05:31;;;;;;;5.57;4.70;;;;;;;;;;5074591;28;20292;-91
2023/04/27 07:07:59;;;;;;;5.80;4.90;;;;;;;;;;5074627;28;20294;-91
2023/04/27 07:10:34;;;;;;;4.07;2.87;;;;;;;;;;5074368;28;20198;-91
2023/04/27 07:13:04;;;;;;;5.00;4.30;;;;;;;;;;5074780;28;20240;-91
2023/04/27 07:15:36;;;;;;;5.47;4.53;;;;;;;;;;5074714;28;20200;-91
2023/04/27 07:18:04;;;;;;;4.67;3.77;;;;;;;;;;5074909;28;20202;-91
2023/04/27 07:20:33;;;;;;;3.80;2.80;;;;;;;;;;5074687;28;20199;-91
2023/04/27 07:23:01;;;;;;;2.20;2.10;;;;;;;;;;5075407;28;20236;-90
2023/04/27 07:25:30;;;;;;;2.23;2.13;;;;;;;;;;5074743;28;20252;-90
2023/04/27 07:27:58;;;;;;;6.63;3.93;;;;;;;;;;5074733;28;20298;-91
2023/04/27 07:30:29;;;;;;;3.43;3.10;;;;;;;;;;5074835;28;20203;-91
2023/04/27 07:32:59;;;;;;;7.73;5.17;;;;;;;;;;5074868;28;20210;-91
2023/04/27 07:35:28;;;;;;;3.73;3.30;;;;;;;;;;5074152;28;20224;-91
2023/04/27 07:37:56;;;;;;;5.13;3.37;;;;;;;;;;5074825;28;20199;-91
2023/04/27 07:40:25;;;;;;;5.63;4.17;;;;;;;;;;5074419;28;20229;-91
2023/04/27 07:42:53;;;;;;;4.17;3.10;;;;;;;;;;5073841;28;20307;-90
2023/04/27 07:45:22;;;;;;;6.70;5.30;;;;;;;;;;5074122;28;20195;-91
2023/04/27 07:47:52;;;;;;;5.00;4.27;;;;;;;;;;5074403;28;20224;-90
2023/04/27 07:50:24;;;;;;;5.13;3.27;;;;;;;;;;5073792;28;20193;-91
2023/04/27 07:52:53;;;;;;;1.87;1.63;;;;;;;;;;5074382;28;20199;-90
2023/04/27 07:55:22;;;;;;;4.40;3.30;;;;;;;;;;5074011;28;20245;-91
2023/04/27 07:57:50;;;;;;;4.63;3.00;;;;;;;;;;5074083;28;20229;-91
2023/04/27 08:00:19;;;;;;;9.20;6.03;;;;;;;;;;5074060;28;20239;-91
2023/04/27 08:02:48;;;;;;;6.30;5.30;;;;;;;;;;5074237;28;20214;-91
2023/04/27 08:05:18;;;;;;;9.47;1.80;;;;;;;;;;5073513;28;20228;-91
2023/04/27 08:07:47;;;;;;;5.10;4.57;;;;;;;;;;5072829;28;20194;-91
2023/04/27 08:10:16;;;;;;;1.70;1.50;;;;;;;;;;5073500;28;20227;-90
2023/04/27 08:12:44;;;;;;;2.00;1.70;;;;;;;;;;5074020;28;20206;-91
2023/04/27 08:15:13;;;;;;;4.53;4.00;;;;;;;;;;5073792;28;20262;-90
2023/04/27 08:17:42;;;;;;;2.87;2.63;;;;;;;;;;5073905;28;20232;-89
2023/04/27 08:20:11;;;;;;;5.83;3.37;;;;;;;;;;5073526;28;20252;-90
2023/04/27 08:22:42;;;;;;;2.83;2.50;;;;;;;;;;5073579;28;20265;-91
2023/04/27 08:25:10;;;;;;;6.17;3.73;;;;;;;;;;5073613;28;20207;-91
2023/04/27 08:27:39;;;;;;;5.03;3.70;;;;;;;;;;5073012;28;20283;-91
2023/04/27 08:30:08;;;;;;;5.33;3.50;;;;;;;;;;5073117;28;20239;-85
2023/04/27 08:32:37;;;;;;;4.57;3.50;;;;;;;;;;5072135;28;20199;-85
2023/04/27 08:35:06;;;;;;;2.60;2.27;;;;;;;;;;5072082;28;20219;-85
2023/04/27 08:37:34;;;;;;;4.87;3.73;;;;;;;;;;5072517;28;20204;-85
2023/04/27 08:40:06;;;;;;;2.27;1.93;;;;;;;;;;5072358;28;20195;-84
2023/04/27 08:42:35;;;;;;;2.30;2.10;;;;;;;;;;5072186;28;20230;-85
2023/04/27 08:45:07;;;;;;;0.90;0.90;;;;;;;;;;5072192;28;20196;-85
2023/04/27 08:47:35;;;;;;;0.80;0.80;;;;;;;;;;5072268;28;20256;-85
2023/04/27 08:50:11;;;;;;;2.90;2.60;;;;;;;;;;5072230;28;20204;-85
2023/04/27 08:52:40;;;;;;;1.70;1.60;;;;;;;;;;5071637;28;20299;-85
2023/04/27 08:55:10;;;;;;;2.07;1.97;;;;;;;;;;5072351;28;20253;-85
2023/04/27 08:57:40;;;;;;;2.23;2.13;;;;;;;;;;5071738;28;20296;-85
2023/04/27 09:00:12;;;;;;;5.47;3.83;;;;;;;;;;5071802;28;21713;-85
2023/04/27 09:02:47;;;;;;;4.83;2.97;;;;;;;;;;5071756;28;20207;-85
2023/04/27 09:05:17;;;;;;;1.70;1.60;;;;;;;;;;5071968;28;20196;-85
2023/04/27 09:07:56;;;;;;;3.33;3.00;;;;;;;;;;5071729;28;20203;-85
2023/04/27 09:10:27;;;;;;;2.17;2.03;;;;;;;;;;5072130;28;20327;-85
2023/04/27 09:12:57;;;;;;;3.33;3.03;;;;;;;;;;5071624;28;20200;-85
2023/04/27 09:15:26;;;;;;;1.70;1.60;;;;;;;;;;5071253;28;20274;-85
2023/04/27 09:17:55;;;;;;;4.43;3.97;;;;;;;;;;5071195;28;20244;-85
2023/04/27 09:20:25;;;;;;;1.50;1.40;;;;;;;;;;5071990;28;20208;-90
2023/04/27 09:22:56;;;;;;;5.43;3.00;;;;;;;;;;5072268;28;20192;-90
2023/04/27 09:25:28;;;;;;;1.07;1.07;;;;;;;;;;5071773;28;20407;-85
2023/04/27 09:27:56;;;;;;;3.07;2.40;;;;;;;;;;5071183;28;20213;-85
2023/04/27 09:30:25;;;;;;;2.10;1.93;;;;;;;;;;5071715;28;20292;-85
2023/04/27 09:32:54;;;;;;;3.50;2.13;;;;;;;;;;5071035;28;20201;-85
2023/04/27 09:35:24;;;;;;;5.93;4.03;;;;;;;;;;5071458;28;20292;-85
2023/04/27 09:37:53;;;;;;;14.17;3.17;;;;;;;;;;5071685;28;20285;-85
2023/04/27 09:40:25;;;;;;;6.30;4.13;;;;;;;;;;5070863;28;20229;-85
2023/04/27 09:42:55;;;;;;;3.90;3.50;;;;;;;;;;5071404;28;20196;-85
2023/04/27 09:45:24;;;;;;;5.23;4.73;;;;;;;;;;5071149;28;20188;-84
2023/04/27 09:47:53;;;;;;;4.53;3.40;;;;;;;;;;5070844;28;20200;-85
2023/04/27 09:50:21;;;;;;;3.00;2.70;;;;;;;;;;5071809;28;20279;-84
2023/04/27 09:52:50;;;;;;;2.03;1.83;;;;;;;;;;5071347;28;20208;-85
2023/04/27 09:55:20;;;;;;;3.90;2.27;;;;;;;;;;5071022;28;20218;-85
2023/04/27 09:57:54;;;;;;;2.03;1.90;;;;;;;;;;5071049;28;20193;-85
2023/04/27 10:00:32;;;;;;;4.77;3.53;;;;;;;;;;5071176;28;20237;-90
2023/04/27 10:03:08;;;;;;;3.97;3.03;;;;;;;;;;5071536;28;20204;-90
2023/04/27 10:05:54;;;;;;;1.73;1.60;;;;;;;;;;5071607;28;20193;-90
2023/04/27 10:08:23;;;;;;;1.63;1.53;;;;;;;;;;5031736;28;20267;-90
2023/04/27 10:10:53;;;;;;;6.60;4.73;;;;;;;;;;5071119;28;20240;-90
2023/04/27 10:13:22;;;;;;;3.80;2.77;;;;;;;;;;5071445;28;20198;-90
2023/04/27 10:15:52;;;;;;;6.30;5.20;;;;;;;;;;5071746;28;20234;-90
2023/04/27 10:18:27;;;;;;;3.80;3.47;;;;;;;;;;5071797;28;20292;-90
2023/04/27 10:20:56;;;;;;;6.13;5.57;;;;;;;;;;5072200;28;20205;-90
2023/04/27 10:23:25;;;;;;;5.53;5.03;;;;;;;;;;5072006;28;20237;-90
2023/04/27 10:25:54;;;;;;;1.03;1.03;;;;;;;;;;5071939;28;20190;-90
2023/04/27 10:28:22;;;;;;;2.73;2.53;;;;;;;;;;5072211;28;20222;-90
2023/04/27 10:30:52;;;;;;;3.73;2.47;;;;;;;;;;5073431;28;20205;-90
2023/04/27 10:33:24;;;;;;;3.87;3.03;;;;;;;;;;5075628;28;20275;-90
2023/04/27 10:35:55;;;;;;;3.90;2.77;;;;;;;;;;5076198;28;20248;-90
2023/04/27 10:38:28;;;;;;;2.43;2.23;;;;;;;;;;5075699;28;20197;-90
2023/04/27 10:40:57;;;;;;;2.57;2.37;;;;;;;;;;5075793;28;20234;-90
2023/04/27 10:43:26;;;;;;;4.13;3.73;;;;;;;;;;5075562;28;20274;-90
2023/04/27 10:46:07;;;;;;;4.83;3.30;;;;;;;;;;5075252;28;20194;-90
2023/04/27 10:48:35;;;;;;;1.73;1.63;;;;;;;;;;5074902;28;20194;-90
2023/04/27 10:51:04;;;;;;;4.00;3.50;;;;;;;;;;5074755;28;20232;-90
2023/04/27 10:53:35;;;;;;;8.17;3.00;;;;;;;;;;5075382;28;20282;-90
2023/04/27 10:56:05;;;;;;;7.27;3.10;;;;;;;;;;5075671;28;20217;-90
2023/04/27 10:58:34;;;;;;;3.20;2.87;;;;;;;;;;5074653;28;20198;-90
2023/04/27 11:01:25;;;;;;;6.43;3.50;;;;;;;;;;5074526;28;20274;-90
2023/04/27 11:03:57;;;;;;;2.10;2.00;;;;;;;;;;5075014;28;20232;-92
2023/04/27 11:06:26;;;;;;;6.80;5.13;;;;;;;;;;5074515;28;20207;-90
2023/04/27 11:08:55;;;;;;;6.70;4.80;;;;;;;;;;5074706;28;20197;-90
2023/04/27 11:11:25;;;;;;;4.63;3.67;;;;;;;;;;5074456;28;20199;-90
2023/04/27 11:13:54;;;;;;;5.53;4.23;;;;;;;;;;5074227;28;20216;-90
2023/04/27 11:16:23;;;;;;;3.37;2.40;;;;;;;;;;5074616;28;20221;-90
2023/04/27 11:18:53;;;;;;;3.30;3.00;;;;;;;;;;5074614;28;20209;-90
2023/04/27 11:21:22;;;;;;;3.67;2.37;;;;;;;;;;5074150;28;20197;-90
2023/04/27 11:23:50;;;;;;;2.40;2.20;;;;;;;;;;5074589;28;20291;-90
2023/04/27 11:26:21;;;;;;;3.67;2.47;;;;;;;;;;5074740;28;20182;-90
2023/04/27 11:28:58;;;;;;;0.90;0.90;;;;;;;;;;5073915;28;20228;-90
2023/04/27 11:31:27;;;;;;;8.90;3.13;;;;;;;;;;5074388;28;20247;-89
2023/04/27 11:33:57;;;;;;;7.63;5.33;;;;;;;;;;5074688;28;20213;-89
2023/04/27 11:36:26;;;;;;;5.97;4.27;;;;;;;;;;5073980;28;20272;-89
2023/04/27 11:38:58;;;;;;;4.67;4.07;;;;;;;;;;5073739;28;20193;-90
2023/04/27 11:41:33;;;;;;;3.87;3.03;;;;;;;;;;5074244;28;20296;-90
2023/04/27 11:44:06;;;;;;;4.20;3.60;;;;;;;;;;5074071;28;20202;-89
2023/04/27 11:46:36;;;;;;;0.83;0.83;;;;;;;;;;5074163;28;20206;-90
2023/04/27 11:49:08;;;;;;;0.60;0.60;;;;;;;;;;5073731;28;20201;-90
2023/04/27 11:51:37;;;;;;;4.40;3.77;;;;;;;;;;5074265;28;20221;-88
2023/04/27 11:54:08;;;;;;;2.87;2.43;;;;;;;;;;5073926;28;20257;-89
2023/04/27 11:56:37;;;;;;;4.63;3.47;;;;;;;;;;5074397;28;20248;-90
2023/04/27 11:59:06;;;;;;;7.07;5.73;;;;;;;;;;5073772;28;20247;-90
2023/04/27 12:01:35;;;;;;;1.40;1.30;;;;;;;;;;5073360;28;20327;-85
2023/04/27 12:04:07;;;;;;;1.27;1.20;;;;;;;;;;5073090;28;20206;-84
2023/04/27 12:06:37;;;;;;;1.67;1.57;;;;;;;;;;5073071;28;20204;-84
2023/04/27 12:09:05;;;;;;;4.80;3.70;;;;;;;;;;5072732;28;20224;-84
2023/04/27 12:11:34;;;;;;;2.00;1.80;;;;;;;;;;5072884;28;20235;-84
2023/04/27 12:14:02;;;;;;;4.23;2.97;;;;;;;;;;5073120;28;20299;-84
2023/04/27 12:16:31;;;;;;;4.40;3.33;;;;;;;;;;5072475;28;20266;-84
2023/04/27 12:18:59;;;;;;;0.60;0.60;;;;;;;;;;5072711;28;20206;-84
2023/04/27 12:21:29;;;;;;;5.40;2.23;;;;;;;;;;5072723;28;20198;-84
2023/04/27 12:23:58;;;;;;;7.20;4.20;;;;;;;;;;5072508;28;20224;-89
2023/04/27 12:26:26;;;;;;;3.40;2.70;;;;;;;;;;5073265;28;20309;-90
2023/04/27 12:28:55;;;;;;;4.13;3.27;;;;;;;;;;5073051;28;20199;-89
2023/04/27 12:31:24;;;;;;;1.90;1.67;;;;;;;;;;5073057;28;20207;-89
2023/04/27 12:33:55;;;;;;;1.73;1.10;;;;;;;;;;5073359;28;20253;-89
2023/04/27 12:36:23;;;;;;;1.00;1.00;;;;;;;;;;5072968;28;20204;-89
2023/04/27 12:38:53;;;;;;;16.37;1.43;;;;;;;;;;5072502;28;20231;-90
2023/04/27 12:41:22;;;;;;;7.17;3.17;;;;;;;;;;5072753;28;20239;-90
2023/04/27 12:43:50;;;;;;;2.47;2.27;;;;;;;;;;5072572;28;20257;-90
2023/04/27 12:46:19;;;;;;;5.20;2.67;;;;;;;;;;5072808;28;20272;-90
2023/04/27 12:48:47;;;;;;;2.77;2.57;;;;;;;;;;5072576;28;20204;-89
2023/04/27 12:51:16;;;;;;;3.90;2.73;;;;;;;;;;5072602;28;20203;-90
2023/04/27 12:53:44;;;;;;;2.13;2.00;;;;;;;;;;5072048;28;20260;-90
2023/04/27 12:56:14;;;;;;;2.60;2.40;;;;;;;;;;5071624;28;20253;-90
2023/04/27 12:58:43;;;;;;;4.73;2.80;;;;;;;;;;5072371;28;20229;-92
2023/04/27 13:01:13;;;;;;;4.70;2.37;;;;;;;;;;5072136;28;20244;-90
2023/04/27 13:03:42;;;;;;;2.60;2.30;;;;;;;;;;5071871;28;20194;-89
2023/04/27 13:06:11;;;;;;;2.63;1.63;;;;;;;;;;5072248;28;20209;-90
2023/04/27 13:08:40;;;;;;;4.30;3.63;;;;;;;;;;5072434;28;20218;-89
2023/04/27 13:11:09;;;;;;;3.10;2.10;;;;;;;;;;5072123;28;20210;-89
2023/04/27 13:13:39;;;;;;;2.33;2.07;;;;;;;;;;5072418;28;20199;-90
2023/04/27 13:16:09;;;;;;;1.97;1.33;;;;;;;;;;5072472;28;20196;-90
2023/04/27 13:18:37;;;;;;;4.10;2.87;;;;;;;;;;5071890;28;20277;-90
2023/04/27 13:21:06;;;;;;;2.10;2.00;;;;;;;;;;5072143;28;20196;-90
2023/04/27 13:23:34;;;;;;;3.00;2.70;;;;;;;;;;5072483;28;20294;-90
2023/04/27 13:26:03;;;;;;;4.10;2.70;;;;;;;;;;5071510;28;20204;-89
2023/04/27 13:28:31;;;;;;;7.03;4.00;;;;;;;;;;5071963;28;20228;-90
2023/04/27 13:31:01;;;;;;;1.90;1.80;;;;;;;;;;5072533;28;20294;-89
2023/04/27 13:33:29;;;;;;;4.27;2.07;;;;;;;;;;5071977;28;20230;-90
2023/04/27 13:36:00;;;;;;;3.23;2.97;;;;;;;;;;5072128;28;20211;-90
2023/04/27 13:38:29;;;;;;;4.77;3.90;;;;;;;;;;5071787;28;20248;-89
2023/04/27 13:40:57;;;;;;;3.13;2.90;;;;;;;;;;5071800;28;20234;-89
2023/04/27 13:43:26;;;;;;;8.83;7.30;;;;;;;;;;5071160;28;20198;-90
2023/04/27 13:45:54;;;;;;;1.53;1.43;;;;;;;;;;5072512;28;20243;-89
2023/04/27 13:48:26;;;;;;;2.67;2.43;;;;;;;;;;5071961;28;20209;-89
2023/04/27 13:50:55;;;;;;;1.93;1.77;;;;;;;;;;5071567;28;20193;-90
2023/04/27 13:53:24;;;;;;;2.20;1.90;;;;;;;;;;5071963;28;20258;-90
2023/04/27 13:55:53;;;;;;;3.43;3.13;;;;;;;;;;5072407;28;20212;-90
2023/04/27 13:58:22;;;;;;;3.23;2.77;;;;;;;;;;5071233;28;20221;-90
2023/04/27 14:00:53;;;;;;;1.90;1.80;;;;;;;;;;5071418;28;20223;-89
2023/04/27 14:03:22;;;;;;;3.60;2.33;;;;;;;;;;5071895;28;20209;-89
2023/04/27 14:05:52;;;;;;;7.23;3.33;;;;;;;;;;5072825;28;20201;-90
2023/04/27 14:08:21;;;;;;;3.50;2.47;;;;;;;;;;5076311;28;20278;-90
2023/04/27 14:10:49;;;;;;;3.20;2.90;;;;;;;;;;5076459;28;20204;-90
2023/04/27 14:13:19;;;;;;;2.30;2.00;;;;;;;;;;5075907;28;20232;-89
2023/04/27 14:15:47;;;;;;;5.10;3.07;;;;;;;;;;5075830;28;20308;-90
2023/04/27 14:18:16;;;;;;;0.90;0.90;;;;;;;;;;5075772;28;20221;-90
2023/04/27 14:20:45;;;;;;;5.40;2.37;;;;;;;;;;5075395;28;20199;-89
2023/04/27 14:23:15;;;;;;;2.77;2.47;;;;;;;;;;5075595;28;20211;-89
2023/04/27 14:25:43;;;;;;;2.00;1.57;;;;;;;;;;5075714;28;20200;-90
2023/04/27 14:28:13;;;;;;;1.77;1.67;;;;;;;;;;5075344;28;20242;-90
2023/04/27 14:30:41;;;;;;;2.87;2.40;;;;;;;;;;5075504;28;20203;-89
2023/04/27 14:33:10;;;;;;;2.30;2.20;;;;;;;;;;5075729;28;20226;-89
2023/04/27 14:35:38;;;;;;;5.57;1.97;;;;;;;;;;5075556;28;20207;-89
2023/04/27 14:38:07;;;;;;;5.37;2.67;;;;;;;;;;5075269;28;20211;-89
2023/04/27 14:40:37;;;;;;;6.03;2.23;;;;;;;;;;5075334;28;20205;-89
2023/04/27 14:43:05;;;;;;;4.03;3.00;;;;;;;;;;5075316;28;20209;-89
2023/04/27 14:45:34;;;;;;;4.73;3.00;;;;;;;;;;5074493;28;20276;-90
2023/04/27 14:48:17;;;;;;;3.30;2.43;;;;;;;;;;5074806;28;20311;-84
2023/04/27 14:50:46;;;;;;;3.77;3.20;;;;;;;;;;5074528;28;20197;-84
2023/04/27 14:53:14;;;;;;;2.57;2.37;;;;;;;;;;5074339;28;20246;-84
2023/04/27 14:55:45;;;;;;;3.13;2.30;;;;;;;;;;5074522;28;20231;-84